sensor_id;sensor_type;location;lat;lon;timestamp;P1;durP1;ratioP1;P2;durP2;ratioP2
20014;SDS011;61787;42.022;23.078;2023-05-06T00:00:10;7.23;;;5.20;;
20014;SDS011;61787;42.022;23.078;2023-05-06T00:01:13;7.07;;;4.73;;
20014;SDS011;61787;42.022;23.078;2023-05-06T00:02:15;6.00;;;4.57;;
20014;SDS011;61787;42.022;23.078;2023-05-06T00:03:17;5.80;;;4.80;;
20014;SDS011;61787;42.022;23.078;2023-05-06T00:04:19;7.20;;;4.73;;
20014;SDS011;61787;42.022;23.078;2023-05-06T00:05:22;6.87;;;5.00;;
20014;SDS011;61787;42.022;23.078;2023-05-06T00:06:23;5.13;;;4.37;;
20014;SDS011;61787;42.022;23.078;2023-05-06T00:07:25;6.30;;;4.80;;
20014;SDS011;61787;42.022;23.078;2023-05-06T00:08:27;9.73;;;5.13;;
20014;SDS011;61787;42.022;23.078;2023-05-06T00:09:28;6.57;;;5.07;;
20014;SDS011;61787;42.022;23.078;2023-05-06T00:10:30;5.43;;;4.87;;
20014;SDS011;61787;42.022;23.078;2023-05-06T00:11:32;6.40;;;5.00;;
20014;SDS011;61787;42.022;23.078;2023-05-06T00:12:33;8.00;;;4.80;;
20014;SDS011;61787;42.022;23.078;2023-05-06T00:13:35;6.17;;;4.37;;
20014;SDS011;61787;42.022;23.078;2023-05-06T00:14:38;5.13;;;4.40;;
20014;SDS011;61787;42.022;23.078;2023-05-06T00:15:40;6.97;;;5.20;;
20014;SDS011;61787;42.022;23.078;2023-05-06T00:16:41;5.73;;;5.00;;
20014;SDS011;61787;42.022;23.078;2023-05-06T00:17:43;6.87;;;5.23;;
20014;SDS011;61787;42.022;23.078;2023-05-06T00:18:45;5.77;;;5.23;;
20014;SDS011;61787;42.022;23.078;2023-05-06T00:19:46;7.03;;;5.07;;
20014;SDS011;61787;42.022;23.078;2023-05-06T00:20:48;5.40;;;4.63;;
20014;SDS011;61787;42.022;23.078;2023-05-06T00:21:49;5.57;;;5.00;;
20014;SDS011;61787;42.022;23.078;2023-05-06T00:22:51;8.37;;;5.27;;
20014;SDS011;61787;42.022;23.078;2023-05-06T00:23:53;6.20;;;5.60;;
20014;SDS011;61787;42.022;23.078;2023-05-06T00:24:54;6.10;;;5.00;;
20014;SDS011;61787;42.022;23.078;2023-05-06T00:25:56;7.53;;;5.57;;
20014;SDS011;61787;42.022;23.078;2023-05-06T00:26:57;7.43;;;4.90;;
20014;SDS011;61787;42.022;23.078;2023-05-06T00:27:59;6.93;;;5.30;;
20014;SDS011;61787;42.022;23.078;2023-05-06T00:29:01;6.17;;;5.53;;
20014;SDS011;61787;42.022;23.078;2023-05-06T00:30:02;5.90;;;5.00;;
20014;SDS011;61787;42.022;23.078;2023-05-06T00:31:04;6.70;;;5.50;;
20014;SDS011;61787;42.022;23.078;2023-05-06T00:32:06;6.87;;;5.40;;
20014;SDS011;61787;42.022;23.078;2023-05-06T00:33:08;5.87;;;5.20;;
20014;SDS011;61787;42.022;23.078;2023-05-06T00:34:09;8.20;;;5.60;;
20014;SDS011;61787;42.022;23.078;2023-05-06T00:35:11;7.47;;;5.40;;
20014;SDS011;61787;42.022;23.078;2023-05-06T00:36:13;7.17;;;5.47;;
20014;SDS011;61787;42.022;23.078;2023-05-06T00:37:14;7.33;;;5.30;;
20014;SDS011;61787;42.022;23.078;2023-05-06T00:38:16;8.43;;;5.47;;
20014;SDS011;61787;42.022;23.078;2023-05-06T00:39:19;7.20;;;5.80;;
20014;SDS011;61787;42.022;23.078;2023-05-06T00:40:21;8.57;;;5.47;;
20014;SDS011;61787;42.022;23.078;2023-05-06T00:41:23;7.67;;;5.97;;
20014;SDS011;61787;42.022;23.078;2023-05-06T00:42:24;10.40;;;6.43;;
20014;SDS011;61787;42.022;23.078;2023-05-06T00:43:26;6.00;;;5.47;;
20014;SDS011;61787;42.022;23.078;2023-05-06T00:44:28;6.73;;;5.63;;
20014;SDS011;61787;42.022;23.078;2023-05-06T00:45:30;6.90;;;5.57;;
20014;SDS011;61787;42.022;23.078;2023-05-06T00:46:32;6.03;;;5.33;;
20014;SDS011;61787;42.022;23.078;2023-05-06T00:47:34;6.90;;;6.20;;
20014;SDS011;61787;42.022;23.078;2023-05-06T00:48:36;7.20;;;5.67;;
20014;SDS011;61787;42.022;23.078;2023-05-06T00:49:38;6.93;;;6.10;;
20014;SDS011;61787;42.022;23.078;2023-05-06T00:50:39;6.40;;;5.70;;
20014;SDS011;61787;42.022;23.078;2023-05-06T00:51:41;7.50;;;6.20;;
20014;SDS011;61787;42.022;23.078;2023-05-06T00:52:43;8.23;;;6.70;;
20014;SDS011;61787;42.022;23.078;2023-05-06T00:53:45;6.43;;;5.80;;
20014;SDS011;61787;42.022;23.078;2023-05-06T00:54:47;6.33;;;5.50;;
20014;SDS011;61787;42.022;23.078;2023-05-06T00:55:49;7.23;;;6.37;;
20014;SDS011;61787;42.022;23.078;2023-05-06T00:56:51;8.77;;;6.17;;
20014;SDS011;61787;42.022;23.078;2023-05-06T00:57:53;6.37;;;5.67;;
20014;SDS011;61787;42.022;23.078;2023-05-06T00:58:55;7.13;;;6.10;;
20014;SDS011;61787;42.022;23.078;2023-05-06T00:59:57;7.13;;;5.43;;
20014;SDS011;61787;42.022;23.078;2023-05-06T01:00:59;8.30;;;5.87;;
20014;SDS011;61787;42.022;23.078;2023-05-06T01:02:02;6.70;;;6.00;;
20014;SDS011;61787;42.022;23.078;2023-05-06T01:03:03;7.50;;;6.27;;
20014;SDS011;61787;42.022;23.078;2023-05-06T01:04:06;7.30;;;6.00;;
20014;SDS011;61787;42.022;23.078;2023-05-06T01:05:08;8.83;;;6.00;;
20014;SDS011;61787;42.022;23.078;2023-05-06T01:06:18;7.63;;;6.17;;
20014;SDS011;61787;42.022;23.078;2023-05-06T01:08:56;6.87;;;6.10;;
20014;SDS011;61787;42.022;23.078;2023-05-06T01:10:12;7.07;;;6.00;;
20014;SDS011;61787;42.022;23.078;2023-05-06T01:11:27;6.27;;;5.43;;
20014;SDS011;61787;42.022;23.078;2023-05-06T01:13:59;9.63;;;6.37;;
20014;SDS011;61787;42.022;23.078;2023-05-06T01:15:10;7.30;;;6.00;;
20014;SDS011;61787;42.022;23.078;2023-05-06T01:16:18;7.17;;;5.47;;
20014;SDS011;61787;42.022;23.078;2023-05-06T01:17:23;6.47;;;5.53;;
20014;SDS011;61787;42.022;23.078;2023-05-06T01:18:29;6.30;;;5.63;;
20014;SDS011;61787;42.022;23.078;2023-05-06T01:20:46;8.30;;;5.83;;
20014;SDS011;61787;42.022;23.078;2023-05-06T01:21:53;5.50;;;5.00;;
20014;SDS011;61787;42.022;23.078;2023-05-06T01:22:56;6.20;;;5.60;;
20014;SDS011;61787;42.022;23.078;2023-05-06T01:23:58;7.03;;;4.93;;
20014;SDS011;61787;42.022;23.078;2023-05-06T01:25:00;6.20;;;5.57;;
20014;SDS011;61787;42.022;23.078;2023-05-06T01:26:01;7.10;;;5.40;;
20014;SDS011;61787;42.022;23.078;2023-05-06T01:27:03;6.40;;;5.60;;
20014;SDS011;61787;42.022;23.078;2023-05-06T01:28:05;6.20;;;5.60;;
20014;SDS011;61787;42.022;23.078;2023-05-06T01:29:10;6.07;;;5.40;;
20014;SDS011;61787;42.022;23.078;2023-05-06T01:30:12;8.60;;;5.30;;
20014;SDS011;61787;42.022;23.078;2023-05-06T01:31:20;7.87;;;5.60;;
20014;SDS011;61787;42.022;23.078;2023-05-06T01:39:17;7.10;;;6.07;;
20014;SDS011;61787;42.022;23.078;2023-05-06T01:40:25;6.87;;;5.83;;
20014;SDS011;61787;42.022;23.078;2023-05-06T01:41:28;8.43;;;6.43;;
20014;SDS011;61787;42.022;23.078;2023-05-06T01:42:34;6.10;;;5.30;;
20014;SDS011;61787;42.022;23.078;2023-05-06T01:43:39;7.70;;;5.80;;
20014;SDS011;61787;42.022;23.078;2023-05-06T01:44:43;8.33;;;6.07;;
20014;SDS011;61787;42.022;23.078;2023-05-06T01:45:45;8.13;;;5.50;;
20014;SDS011;61787;42.022;23.078;2023-05-06T01:46:53;6.63;;;5.97;;
20014;SDS011;61787;42.022;23.078;2023-05-06T01:47:56;5.87;;;5.27;;
20014;SDS011;61787;42.022;23.078;2023-05-06T01:49:00;7.73;;;5.70;;
20014;SDS011;61787;42.022;23.078;2023-05-06T01:50:05;7.43;;;6.03;;
20014;SDS011;61787;42.022;23.078;2023-05-06T01:51:07;6.23;;;5.10;;
20014;SDS011;61787;42.022;23.078;2023-05-06T01:52:08;6.57;;;5.73;;
20014;SDS011;61787;42.022;23.078;2023-05-06T01:53:10;6.60;;;5.53;;
20014;SDS011;61787;42.022;23.078;2023-05-06T01:54:11;7.60;;;5.60;;
20014;SDS011;61787;42.022;23.078;2023-05-06T01:55:13;6.90;;;5.43;;
20014;SDS011;61787;42.022;23.078;2023-05-06T01:56:15;7.33;;;5.40;;
20014;SDS011;61787;42.022;23.078;2023-05-06T01:57:17;5.73;;;5.13;;
20014;SDS011;61787;42.022;23.078;2023-05-06T01:58:18;6.63;;;5.90;;
20014;SDS011;61787;42.022;23.078;2023-05-06T01:59:20;6.40;;;5.63;;
20014;SDS011;61787;42.022;23.078;2023-05-06T02:00:22;5.87;;;5.27;;
20014;SDS011;61787;42.022;23.078;2023-05-06T02:01:25;6.90;;;6.20;;
20014;SDS011;61787;42.022;23.078;2023-05-06T02:02:26;5.83;;;5.20;;
20014;SDS011;61787;42.022;23.078;2023-05-06T02:03:28;7.50;;;5.27;;
20014;SDS011;61787;42.022;23.078;2023-05-06T02:04:30;6.27;;;5.67;;
20014;SDS011;61787;42.022;23.078;2023-05-06T02:05:32;8.30;;;5.20;;
20014;SDS011;61787;42.022;23.078;2023-05-06T02:06:34;5.70;;;5.20;;
20014;SDS011;61787;42.022;23.078;2023-05-06T02:07:35;7.17;;;5.50;;
20014;SDS011;61787;42.022;23.078;2023-05-06T02:08:37;6.77;;;5.63;;
20014;SDS011;61787;42.022;23.078;2023-05-06T02:09:40;6.87;;;5.43;;
20014;SDS011;61787;42.022;23.078;2023-05-06T02:10:41;6.47;;;5.27;;
20014;SDS011;61787;42.022;23.078;2023-05-06T02:11:43;6.00;;;5.40;;
20014;SDS011;61787;42.022;23.078;2023-05-06T02:12:45;5.17;;;4.67;;
20014;SDS011;61787;42.022;23.078;2023-05-06T02:13:46;7.07;;;5.10;;
20014;SDS011;61787;42.022;23.078;2023-05-06T02:14:48;6.70;;;5.87;;
20014;SDS011;61787;42.022;23.078;2023-05-06T02:15:52;6.53;;;5.50;;
20014;SDS011;61787;42.022;23.078;2023-05-06T02:16:55;5.87;;;5.30;;
20014;SDS011;61787;42.022;23.078;2023-05-06T02:17:56;8.50;;;6.17;;
20014;SDS011;61787;42.022;23.078;2023-05-06T02:19:00;6.30;;;5.37;;
20014;SDS011;61787;42.022;23.078;2023-05-06T02:20:01;5.90;;;4.97;;
20014;SDS011;61787;42.022;23.078;2023-05-06T02:21:03;5.67;;;4.60;;
20014;SDS011;61787;42.022;23.078;2023-05-06T02:22:05;5.97;;;4.97;;
20014;SDS011;61787;42.022;23.078;2023-05-06T02:23:07;6.63;;;5.23;;
20014;SDS011;61787;42.022;23.078;2023-05-06T02:24:08;7.27;;;5.33;;
20014;SDS011;61787;42.022;23.078;2023-05-06T02:25:10;7.97;;;4.83;;
20014;SDS011;61787;42.022;23.078;2023-05-06T02:26:12;5.37;;;4.87;;
20014;SDS011;61787;42.022;23.078;2023-05-06T02:27:13;5.70;;;5.20;;
20014;SDS011;61787;42.022;23.078;2023-05-06T02:28:15;6.03;;;4.83;;
20014;SDS011;61787;42.022;23.078;2023-05-06T02:29:16;9.37;;;6.20;;
20014;SDS011;61787;42.022;23.078;2023-05-06T02:30:18;8.57;;;5.50;;
20014;SDS011;61787;42.022;23.078;2023-05-06T02:31:19;7.40;;;5.87;;
20014;SDS011;61787;42.022;23.078;2023-05-06T02:32:21;5.90;;;5.30;;
20014;SDS011;61787;42.022;23.078;2023-05-06T02:33:23;7.37;;;6.13;;
20014;SDS011;61787;42.022;23.078;2023-05-06T02:34:25;6.80;;;6.10;;
20014;SDS011;61787;42.022;23.078;2023-05-06T02:35:26;6.27;;;5.67;;
20014;SDS011;61787;42.022;23.078;2023-05-06T02:36:28;7.93;;;5.90;;
20014;SDS011;61787;42.022;23.078;2023-05-06T02:37:29;7.23;;;6.53;;
20014;SDS011;61787;42.022;23.078;2023-05-06T02:38:31;7.07;;;6.17;;
20014;SDS011;61787;42.022;23.078;2023-05-06T02:39:32;9.10;;;6.53;;
20014;SDS011;61787;42.022;23.078;2023-05-06T02:40:34;7.53;;;6.57;;
20014;SDS011;61787;42.022;23.078;2023-05-06T02:41:36;10.50;;;7.40;;
20014;SDS011;61787;42.022;23.078;2023-05-06T02:42:37;8.20;;;7.40;;
20014;SDS011;61787;42.022;23.078;2023-05-06T02:43:39;7.50;;;6.80;;
20014;SDS011;61787;42.022;23.078;2023-05-06T02:44:40;7.33;;;6.50;;
20014;SDS011;61787;42.022;23.078;2023-05-06T02:45:42;7.40;;;6.67;;
20014;SDS011;61787;42.022;23.078;2023-05-06T02:46:44;10.03;;;7.10;;
20014;SDS011;61787;42.022;23.078;2023-05-06T02:47:45;8.40;;;7.00;;
20014;SDS011;61787;42.022;23.078;2023-05-06T02:48:47;8.10;;;7.20;;
20014;SDS011;61787;42.022;23.078;2023-05-06T02:49:49;8.27;;;6.93;;
20014;SDS011;61787;42.022;23.078;2023-05-06T02:50:50;8.90;;;7.00;;
20014;SDS011;61787;42.022;23.078;2023-05-06T02:51:52;7.63;;;6.70;;
20014;SDS011;61787;42.022;23.078;2023-05-06T02:52:54;8.07;;;6.83;;
20014;SDS011;61787;42.022;23.078;2023-05-06T02:53:55;9.13;;;6.63;;
20014;SDS011;61787;42.022;23.078;2023-05-06T02:54:57;8.13;;;6.83;;
20014;SDS011;61787;42.022;23.078;2023-05-06T02:55:59;9.57;;;7.33;;
20014;SDS011;61787;42.022;23.078;2023-05-06T02:57:00;7.63;;;6.83;;
20014;SDS011;61787;42.022;23.078;2023-05-06T02:58:02;7.63;;;6.47;;
20014;SDS011;61787;42.022;23.078;2023-05-06T02:59:04;7.43;;;6.30;;
20014;SDS011;61787;42.022;23.078;2023-05-06T03:00:06;7.00;;;6.17;;
20014;SDS011;61787;42.022;23.078;2023-05-06T03:01:11;6.97;;;6.10;;
20014;SDS011;61787;42.022;23.078;2023-05-06T03:02:12;7.33;;;6.63;;
20014;SDS011;61787;42.022;23.078;2023-05-06T03:03:15;7.93;;;7.13;;
20014;SDS011;61787;42.022;23.078;2023-05-06T03:04:18;8.73;;;6.57;;
20014;SDS011;61787;42.022;23.078;2023-05-06T03:05:19;8.73;;;7.60;;
20014;SDS011;61787;42.022;23.078;2023-05-06T03:06:21;9.93;;;8.03;;
20014;SDS011;61787;42.022;23.078;2023-05-06T03:07:22;8.67;;;7.43;;
20014;SDS011;61787;42.022;23.078;2023-05-06T03:08:24;8.23;;;7.07;;
20014;SDS011;61787;42.022;23.078;2023-05-06T03:09:26;8.33;;;7.43;;
20014;SDS011;61787;42.022;23.078;2023-05-06T03:10:27;7.73;;;6.93;;
20014;SDS011;61787;42.022;23.078;2023-05-06T03:11:29;8.00;;;7.20;;
20014;SDS011;61787;42.022;23.078;2023-05-06T03:12:31;7.43;;;6.67;;
20014;SDS011;61787;42.022;23.078;2023-05-06T03:13:33;7.63;;;6.83;;
20014;SDS011;61787;42.022;23.078;2023-05-06T03:14:34;7.70;;;6.90;;
20014;SDS011;61787;42.022;23.078;2023-05-06T03:15:36;9.37;;;6.90;;
20014;SDS011;61787;42.022;23.078;2023-05-06T03:16:38;9.17;;;6.57;;
20014;SDS011;61787;42.022;23.078;2023-05-06T03:17:39;7.37;;;6.67;;
20014;SDS011;61787;42.022;23.078;2023-05-06T03:18:41;10.10;;;7.80;;
20014;SDS011;61787;42.022;23.078;2023-05-06T03:19:42;7.67;;;6.50;;
20014;SDS011;61787;42.022;23.078;2023-05-06T03:20:45;10.73;;;6.40;;
20014;SDS011;61787;42.022;23.078;2023-05-06T03:21:48;7.70;;;6.43;;
20014;SDS011;61787;42.022;23.078;2023-05-06T03:22:50;9.30;;;6.20;;
20014;SDS011;61787;42.022;23.078;2023-05-06T03:23:51;7.50;;;6.20;;
20014;SDS011;61787;42.022;23.078;2023-05-06T03:24:53;9.03;;;6.33;;
20014;SDS011;61787;42.022;23.078;2023-05-06T03:25:54;7.07;;;6.13;;
20014;SDS011;61787;42.022;23.078;2023-05-06T03:26:56;8.03;;;6.20;;
20014;SDS011;61787;42.022;23.078;2023-05-06T03:27:58;6.53;;;5.87;;
20014;SDS011;61787;42.022;23.078;2023-05-06T03:29:00;6.70;;;5.67;;
20014;SDS011;61787;42.022;23.078;2023-05-06T03:30:03;13.43;;;6.80;;
20014;SDS011;61787;42.022;23.078;2023-05-06T03:31:05;6.77;;;6.00;;
20014;SDS011;61787;42.022;23.078;2023-05-06T03:32:06;6.93;;;6.23;;
20014;SDS011;61787;42.022;23.078;2023-05-06T03:33:08;6.10;;;5.50;;
20014;SDS011;61787;42.022;23.078;2023-05-06T03:34:10;7.17;;;5.83;;
20014;SDS011;61787;42.022;23.078;2023-05-06T03:35:11;9.47;;;6.50;;
20014;SDS011;61787;42.022;23.078;2023-05-06T03:36:13;6.40;;;5.80;;
20014;SDS011;61787;42.022;23.078;2023-05-06T03:37:14;7.60;;;5.87;;
20014;SDS011;61787;42.022;23.078;2023-05-06T03:38:16;7.83;;;5.87;;
20014;SDS011;61787;42.022;23.078;2023-05-06T03:39:18;7.57;;;6.07;;
20014;SDS011;61787;42.022;23.078;2023-05-06T03:40:19;6.50;;;5.53;;
20014;SDS011;61787;42.022;23.078;2023-05-06T03:41:21;6.60;;;5.90;;
20014;SDS011;61787;42.022;23.078;2023-05-06T03:42:24;7.10;;;5.90;;
20014;SDS011;61787;42.022;23.078;2023-05-06T03:43:26;6.40;;;5.80;;
20014;SDS011;61787;42.022;23.078;2023-05-06T03:44:27;7.30;;;6.00;;
20014;SDS011;61787;42.022;23.078;2023-05-06T03:45:29;6.33;;;5.70;;
20014;SDS011;61787;42.022;23.078;2023-05-06T03:46:31;8.37;;;6.40;;
20014;SDS011;61787;42.022;23.078;2023-05-06T03:47:33;6.37;;;5.77;;
20014;SDS011;61787;42.022;23.078;2023-05-06T03:48:34;6.03;;;5.43;;
20014;SDS011;61787;42.022;23.078;2023-05-06T03:49:36;7.07;;;5.83;;
20014;SDS011;61787;42.022;23.078;2023-05-06T03:50:37;6.30;;;5.70;;
20014;SDS011;61787;42.022;23.078;2023-05-06T03:51:39;7.53;;;6.53;;
20014;SDS011;61787;42.022;23.078;2023-05-06T03:52:41;7.63;;;6.47;;
20014;SDS011;61787;42.022;23.078;2023-05-06T03:53:43;8.53;;;6.47;;
20014;SDS011;61787;42.022;23.078;2023-05-06T03:54:44;7.10;;;6.40;;
20014;SDS011;61787;42.022;23.078;2023-05-06T03:55:46;10.23;;;7.00;;
20014;SDS011;61787;42.022;23.078;2023-05-06T03:56:48;19.33;;;15.97;;
20014;SDS011;61787;42.022;23.078;2023-05-06T03:57:49;21.17;;;18.97;;
20014;SDS011;61787;42.022;23.078;2023-05-06T03:58:51;13.53;;;12.13;;
20014;SDS011;61787;42.022;23.078;2023-05-06T03:59:54;7.00;;;5.70;;
20014;SDS011;61787;42.022;23.078;2023-05-06T04:00:56;5.70;;;5.10;;
20014;SDS011;61787;42.022;23.078;2023-05-06T04:02:00;8.97;;;7.80;;
20014;SDS011;61787;42.022;23.078;2023-05-06T04:03:01;8.20;;;5.87;;
20014;SDS011;61787;42.022;23.078;2023-05-06T04:04:03;7.93;;;7.13;;
20014;SDS011;61787;42.022;23.078;2023-05-06T04:05:05;6.93;;;6.23;;
20014;SDS011;61787;42.022;23.078;2023-05-06T04:06:08;8.43;;;5.50;;
20014;SDS011;61787;42.022;23.078;2023-05-06T04:07:09;9.27;;;6.23;;
20014;SDS011;61787;42.022;23.078;2023-05-06T04:08:11;7.40;;;5.67;;
20014;SDS011;61787;42.022;23.078;2023-05-06T04:09:12;7.17;;;6.00;;
20014;SDS011;61787;42.022;23.078;2023-05-06T04:10:14;7.50;;;6.03;;
20014;SDS011;61787;42.022;23.078;2023-05-06T04:11:16;7.67;;;6.07;;
20014;SDS011;61787;42.022;23.078;2023-05-06T04:12:17;11.90;;;6.20;;
20014;SDS011;61787;42.022;23.078;2023-05-06T04:13:19;7.60;;;6.40;;
20014;SDS011;61787;42.022;23.078;2023-05-06T04:14:21;7.47;;;6.07;;
20014;SDS011;61787;42.022;23.078;2023-05-06T04:15:22;7.97;;;5.97;;
20014;SDS011;61787;42.022;23.078;2023-05-06T04:16:24;7.73;;;6.17;;
20014;SDS011;61787;42.022;23.078;2023-05-06T04:17:26;6.73;;;6.03;;
20014;SDS011;61787;42.022;23.078;2023-05-06T04:18:28;8.27;;;6.17;;
20014;SDS011;61787;42.022;23.078;2023-05-06T04:19:30;8.70;;;6.50;;
20014;SDS011;61787;42.022;23.078;2023-05-06T04:20:33;6.87;;;5.83;;
20014;SDS011;61787;42.022;23.078;2023-05-06T04:21:35;6.20;;;5.57;;
20014;SDS011;61787;42.022;23.078;2023-05-06T04:22:37;6.33;;;5.53;;
20014;SDS011;61787;42.022;23.078;2023-05-06T04:23:38;6.97;;;5.30;;
20014;SDS011;61787;42.022;23.078;2023-05-06T04:24:41;10.23;;;6.70;;
20014;SDS011;61787;42.022;23.078;2023-05-06T04:25:45;7.10;;;6.07;;
20014;SDS011;61787;42.022;23.078;2023-05-06T04:26:50;5.57;;;5.07;;
20014;SDS011;61787;42.022;23.078;2023-05-06T04:27:52;6.20;;;5.37;;
20014;SDS011;61787;42.022;23.078;2023-05-06T04:28:53;7.83;;;5.23;;
20014;SDS011;61787;42.022;23.078;2023-05-06T04:29:56;5.53;;;4.87;;
20014;SDS011;61787;42.022;23.078;2023-05-06T04:30:57;5.70;;;5.10;;
20014;SDS011;61787;42.022;23.078;2023-05-06T04:31:59;6.93;;;5.23;;
20014;SDS011;61787;42.022;23.078;2023-05-06T04:33:01;7.23;;;5.43;;
20014;SDS011;61787;42.022;23.078;2023-05-06T04:34:04;7.83;;;5.53;;
20014;SDS011;61787;42.022;23.078;2023-05-06T04:35:06;7.07;;;5.40;;
20014;SDS011;61787;42.022;23.078;2023-05-06T04:36:08;6.13;;;5.53;;
20014;SDS011;61787;42.022;23.078;2023-05-06T04:37:09;6.00;;;5.40;;
20014;SDS011;61787;42.022;23.078;2023-05-06T04:38:11;6.70;;;5.80;;
20014;SDS011;61787;42.022;23.078;2023-05-06T04:39:15;6.47;;;5.10;;
20014;SDS011;61787;42.022;23.078;2023-05-06T04:40:18;5.60;;;5.00;;
20014;SDS011;61787;42.022;23.078;2023-05-06T04:41:19;6.50;;;5.20;;
20014;SDS011;61787;42.022;23.078;2023-05-06T04:42:22;6.07;;;5.20;;
20014;SDS011;61787;42.022;23.078;2023-05-06T04:43:26;7.57;;;6.10;;
20014;SDS011;61787;42.022;23.078;2023-05-06T04:44:28;9.83;;;8.10;;
20014;SDS011;61787;42.022;23.078;2023-05-06T04:45:30;13.67;;;9.00;;
20014;SDS011;61787;42.022;23.078;2023-05-06T04:46:32;11.20;;;9.20;;
20014;SDS011;61787;42.022;23.078;2023-05-06T04:47:34;15.07;;;9.23;;
20014;SDS011;61787;42.022;23.078;2023-05-06T04:48:36;11.90;;;9.43;;
20014;SDS011;61787;42.022;23.078;2023-05-06T04:49:38;14.17;;;9.93;;
20014;SDS011;61787;42.022;23.078;2023-05-06T04:50:40;14.57;;;9.27;;
20014;SDS011;61787;42.022;23.078;2023-05-06T04:51:41;14.03;;;9.70;;
20014;SDS011;61787;42.022;23.078;2023-05-06T04:52:43;13.50;;;9.23;;
20014;SDS011;61787;42.022;23.078;2023-05-06T04:53:44;11.47;;;8.87;;
20014;SDS011;61787;42.022;23.078;2023-05-06T04:54:46;12.37;;;8.77;;
20014;SDS011;61787;42.022;23.078;2023-05-06T04:55:48;11.13;;;8.07;;
20014;SDS011;61787;42.022;23.078;2023-05-06T04:56:50;9.63;;;8.07;;
20014;SDS011;61787;42.022;23.078;2023-05-06T04:57:51;11.00;;;8.20;;
20014;SDS011;61787;42.022;23.078;2023-05-06T04:58:53;9.63;;;7.90;;
20014;SDS011;61787;42.022;23.078;2023-05-06T04:59:54;9.23;;;7.73;;
20014;SDS011;61787;42.022;23.078;2023-05-06T05:00:56;10.23;;;7.53;;
20014;SDS011;61787;42.022;23.078;2023-05-06T05:01:58;7.80;;;7.00;;
20014;SDS011;61787;42.022;23.078;2023-05-06T05:02:59;7.03;;;5.87;;
20014;SDS011;61787;42.022;23.078;2023-05-06T05:04:02;8.77;;;6.57;;
20014;SDS011;61787;42.022;23.078;2023-05-06T05:05:04;11.37;;;6.90;;
20014;SDS011;61787;42.022;23.078;2023-05-06T05:06:06;7.33;;;6.33;;
20014;SDS011;61787;42.022;23.078;2023-05-06T05:07:07;8.20;;;6.90;;
20014;SDS011;61787;42.022;23.078;2023-05-06T05:08:09;9.20;;;5.70;;
20014;SDS011;61787;42.022;23.078;2023-05-06T05:09:13;6.73;;;5.30;;
20014;SDS011;61787;42.022;23.078;2023-05-06T05:10:15;6.57;;;5.20;;
20014;SDS011;61787;42.022;23.078;2023-05-06T05:11:16;6.57;;;5.27;;
20014;SDS011;61787;42.022;23.078;2023-05-06T05:12:18;7.13;;;6.07;;
20014;SDS011;61787;42.022;23.078;2023-05-06T05:13:19;6.87;;;5.33;;
20014;SDS011;61787;42.022;23.078;2023-05-06T05:14:21;5.30;;;4.80;;
20014;SDS011;61787;42.022;23.078;2023-05-06T05:15:23;6.57;;;4.70;;
20014;SDS011;61787;42.022;23.078;2023-05-06T05:16:25;5.93;;;4.67;;
20014;SDS011;61787;42.022;23.078;2023-05-06T05:17:27;6.20;;;5.23;;
20014;SDS011;61787;42.022;23.078;2023-05-06T05:18:28;6.60;;;4.40;;
20014;SDS011;61787;42.022;23.078;2023-05-06T05:19:30;10.63;;;4.97;;
20014;SDS011;61787;42.022;23.078;2023-05-06T05:20:31;6.73;;;5.20;;
20014;SDS011;61787;42.022;23.078;2023-05-06T05:21:33;5.10;;;4.60;;
20014;SDS011;61787;42.022;23.078;2023-05-06T05:22:35;7.73;;;4.87;;
20014;SDS011;61787;42.022;23.078;2023-05-06T05:23:37;5.70;;;4.93;;
20014;SDS011;61787;42.022;23.078;2023-05-06T05:24:38;5.60;;;4.90;;
20014;SDS011;61787;42.022;23.078;2023-05-06T05:25:40;5.50;;;5.00;;
20014;SDS011;61787;42.022;23.078;2023-05-06T05:26:42;5.10;;;4.60;;
20014;SDS011;61787;42.022;23.078;2023-05-06T05:27:43;5.37;;;4.57;;
20014;SDS011;61787;42.022;23.078;2023-05-06T05:28:45;6.80;;;5.47;;
20014;SDS011;61787;42.022;23.078;2023-05-06T05:29:47;7.13;;;4.93;;
20014;SDS011;61787;42.022;23.078;2023-05-06T05:30:48;7.73;;;4.83;;
20014;SDS011;61787;42.022;23.078;2023-05-06T05:31:50;5.30;;;4.60;;
20014;SDS011;61787;42.022;23.078;2023-05-06T05:32:52;6.17;;;4.80;;
20014;SDS011;61787;42.022;23.078;2023-05-06T05:33:54;8.95;;;5.72;;
20014;SDS011;61787;42.022;23.078;2023-05-06T05:34:55;11.68;;;5.97;;
20014;SDS011;61787;42.022;23.078;2023-05-06T05:35:57;9.23;;;6.67;;
20014;SDS011;61787;42.022;23.078;2023-05-06T05:36:59;6.70;;;5.67;;
20014;SDS011;61787;42.022;23.078;2023-05-06T05:38:00;8.20;;;6.40;;
20014;SDS011;61787;42.022;23.078;2023-05-06T05:39:02;9.23;;;6.30;;
20014;SDS011;61787;42.022;23.078;2023-05-06T05:40:04;9.03;;;7.40;;
20014;SDS011;61787;42.022;23.078;2023-05-06T05:41:06;9.30;;;6.80;;
20014;SDS011;61787;42.022;23.078;2023-05-06T05:42:08;9.27;;;6.77;;
20014;SDS011;61787;42.022;23.078;2023-05-06T05:43:09;8.00;;;6.72;;
20014;SDS011;61787;42.022;23.078;2023-05-06T05:44:11;10.35;;;6.97;;
20014;SDS011;61787;42.022;23.078;2023-05-06T05:45:12;11.52;;;6.93;;
20014;SDS011;61787;42.022;23.078;2023-05-06T05:46:14;8.85;;;6.85;;
20014;SDS011;61787;42.022;23.078;2023-05-06T05:47:17;10.05;;;5.95;;
20014;SDS011;61787;42.022;23.078;2023-05-06T05:48:18;10.60;;;6.90;;
20014;SDS011;61787;42.022;23.078;2023-05-06T05:49:20;9.40;;;6.18;;
20014;SDS011;61787;42.022;23.078;2023-05-06T05:50:21;9.75;;;6.20;;
20014;SDS011;61787;42.022;23.078;2023-05-06T05:51:23;7.53;;;6.65;;
20014;SDS011;61787;42.022;23.078;2023-05-06T05:52:25;10.48;;;6.45;;
20014;SDS011;61787;42.022;23.078;2023-05-06T05:53:27;9.60;;;7.47;;
20014;SDS011;61787;42.022;23.078;2023-05-06T05:54:28;7.82;;;7.00;;
20014;SDS011;61787;42.022;23.078;2023-05-06T05:55:30;7.10;;;6.40;;
20014;SDS011;61787;42.022;23.078;2023-05-06T05:56:32;9.07;;;6.43;;
20014;SDS011;61787;42.022;23.078;2023-05-06T05:57:33;7.90;;;6.63;;
20014;SDS011;61787;42.022;23.078;2023-05-06T05:58:35;8.10;;;6.28;;
20014;SDS011;61787;42.022;23.078;2023-05-06T05:59:37;9.50;;;6.75;;
20014;SDS011;61787;42.022;23.078;2023-05-06T06:00:38;7.65;;;6.82;;
20014;SDS011;61787;42.022;23.078;2023-05-06T06:01:40;7.45;;;6.57;;
20014;SDS011;61787;42.022;23.078;2023-05-06T06:02:41;8.70;;;6.32;;
20014;SDS011;61787;42.022;23.078;2023-05-06T06:03:43;9.73;;;6.13;;
20014;SDS011;61787;42.022;23.078;2023-05-06T06:04:45;9.30;;;5.97;;
20014;SDS011;61787;42.022;23.078;2023-05-06T06:05:46;9.02;;;5.55;;
20014;SDS011;61787;42.022;23.078;2023-05-06T06:06:49;6.68;;;5.35;;
20014;SDS011;61787;42.022;23.078;2023-05-06T06:07:51;8.50;;;5.68;;
20014;SDS011;61787;42.022;23.078;2023-05-06T06:08:53;6.30;;;5.65;;
20014;SDS011;61787;42.022;23.078;2023-05-06T06:09:55;6.97;;;5.35;;
20014;SDS011;61787;42.022;23.078;2023-05-06T06:10:56;5.90;;;5.30;;
20014;SDS011;61787;42.022;23.078;2023-05-06T06:11:58;9.05;;;5.28;;
20014;SDS011;61787;42.022;23.078;2023-05-06T06:12:59;7.07;;;5.32;;
20014;SDS011;61787;42.022;23.078;2023-05-06T06:14:01;6.53;;;5.13;;
20014;SDS011;61787;42.022;23.078;2023-05-06T06:15:03;9.32;;;5.75;;
20014;SDS011;61787;42.022;23.078;2023-05-06T06:16:05;9.73;;;5.90;;
20014;SDS011;61787;42.022;23.078;2023-05-06T06:17:06;6.30;;;5.70;;
20014;SDS011;61787;42.022;23.078;2023-05-06T06:18:08;7.22;;;5.78;;
20014;SDS011;61787;42.022;23.078;2023-05-06T06:19:10;6.40;;;5.68;;